Time;durP1;ratioP1;P1;durP2;ratioP2;P2;SDS_P1;SDS_P2;PMS_P1;PMS_P2;Temp;Humidity;BMP_temperature;BMP_pressure;BME280_temperature;BME280_humidity;BME280_pressure;Samples;Min_cycle;Max_cycle;Signal;HPM_P1;HPM_P2
2022/05/26 00:02:13;;;;;;;5.70;2.80;;;;;;;17.76;60.03;100632.19;5396713;32;35343;-67
2022/05/26 00:05:15;;;;;;;5.53;2.70;;;;;;;17.25;62.05;100638.03;5391070;32;43118;-68
2022/05/26 00:08:17;;;;;;;3.70;2.60;;;;;;;17.05;61.39;100647.25;5395280;32;34353;-68
2022/05/26 00:11:23;;;;;;;5.93;2.67;;;;;;;16.74;62.42;100643.00;5395027;32;34201;-67
2022/05/26 00:14:25;;;;;;;5.50;2.60;;;;;;;16.63;62.74;100648.06;5413811;32;33686;-68
2022/05/26 00:17:28;;;;;;;4.63;2.73;;;;;;;17.54;60.11;100649.50;5395502;32;35868;-67
2022/05/26 00:20:30;;;;;;;3.93;2.80;;;;;;;16.55;63.01;100654.75;5398785;32;34613;-67
2022/05/26 00:23:33;;;;;;;4.10;2.50;;;;;;;16.75;61.94;100663.28;5379071;32;35677;-68
2022/05/26 00:26:35;;;;;;;5.77;2.63;;;;;;;16.97;61.05;100667.28;5375856;32;35465;-69
2022/05/26 00:29:37;;;;;;;6.63;3.17;;;;;;;17.01;60.88;100669.66;5404677;32;34636;-69
2022/05/26 00:32:39;;;;;;;4.43;2.80;;;;;;;16.37;63.58;100667.34;5393734;32;35392;-69
2022/05/26 00:35:42;;;;;;;4.27;2.97;;;;;;;15.86;65.76;100678.19;5414512;32;34126;-67
2022/05/26 00:38:44;;;;;;;7.63;3.23;;;;;;;16.23;64.01;100670.78;5394045;32;35436;-68
2022/05/26 00:41:56;;;;;;;5.80;3.00;;;;;;;15.93;65.30;100679.53;5413827;32;44578;-68
2022/05/26 00:44:58;;;;;;;4.97;3.20;;;;;;;15.66;66.77;100683.75;5405656;32;35310;-68
2022/05/26 00:48:00;;;;;;;7.13;3.63;;;;;;;15.87;65.37;100685.19;5398883;32;36374;-68
2022/05/26 00:51:03;;;;;;;6.63;3.33;;;;;;;15.76;65.77;100697.34;5391552;32;34171;-68
2022/05/26 00:54:11;;;;;;;4.78;2.70;;;;;;;15.37;66.67;100688.81;5398133;32;35269;-67
2022/05/26 00:57:19;;;;;;;5.37;2.77;;;;;;;15.51;65.40;100689.84;5394510;32;34228;-68
2022/05/26 01:00:26;;;;;;;3.90;2.43;;;;;;;15.56;65.35;100685.16;5398424;32;42329;-67
2022/05/26 01:03:32;;;;;;;5.67;2.80;;;;;;;15.84;63.92;100693.34;5400616;32;34293;-68
2022/05/26 01:06:40;;;;;;;4.23;2.30;;;;;;;16.34;62.34;100688.72;5397815;32;35297;-68
2022/05/26 01:09:42;;;;;;;4.53;2.70;;;;;;;15.91;63.21;100691.19;5380371;32;33954;-67
2022/05/26 01:12:44;;;;;;;5.00;2.40;;;;;;;15.62;63.88;100698.94;5413886;32;44340;-67
2022/05/26 01:15:52;;;;;;;3.33;2.30;;;;;;;15.54;64.37;100697.63;5402185;32;37625;-68
2022/05/26 01:19:06;;;;;;;4.23;2.60;;;;;;;15.39;64.95;100691.34;5393871;32;34096;-67
2022/05/26 01:22:39;;;;;;;5.33;2.70;;;;;;;15.51;63.95;100703.94;5403623;32;34995;-67
2022/05/26 01:25:56;;;;;;;4.57;2.77;;;;;;;15.88;63.35;100697.50;5384020;32;35376;-68
2022/05/26 01:29:20;;;;;;;5.27;3.30;;;;;;;15.43;65.07;100714.09;5412110;32;34218;-67
2022/05/26 01:32:24;;;;;;;9.43;4.03;;;;;;;15.42;66.12;100701.81;5400318;32;43127;-68
2022/05/26 01:35:33;;;;;;;8.13;3.57;;;;;;;14.95;68.44;100712.28;5401639;32;34090;-69
2022/05/26 01:38:41;;;;;;;7.50;3.93;;;;;;;14.78;69.42;100707.84;5416251;32;34318;-68
2022/05/26 01:41:52;;;;;;;7.13;4.20;;;;;;;14.99;68.82;100711.16;5396253;32;35211;-68
2022/05/26 01:45:14;;;;;;;7.73;3.90;;;;;;;14.76;69.36;100710.56;5395224;32;37489;-68
2022/05/26 01:48:27;;;;;;;8.13;3.90;;;;;;;14.81;68.98;100713.84;5380432;32;44742;-67
2022/05/26 01:51:34;;;;;;;6.60;4.15;;;;;;;14.93;67.84;100720.28;5400419;32;34174;-67
2022/05/26 01:54:38;;;;;;;7.73;3.73;;;;;;;14.55;69.16;100725.72;5405129;32;35342;-67
2022/05/26 01:57:47;;;;;;;6.77;3.47;;;;;;;14.50;69.61;100729.56;5372562;32;36597;-68
2022/05/26 02:00:52;;;;;;;6.53;3.50;;;;;;;14.42;69.58;100721.94;5415559;32;44384;-68
2022/05/26 02:03:57;;;;;;;6.67;3.40;;;;;;;14.45;68.40;100729.75;5386581;32;35412;-68
2022/05/26 02:07:05;;;;;;;7.73;3.23;;;;;;;14.81;67.34;100735.03;5390223;32;34531;-67
2022/05/26 02:10:12;;;;;;;5.77;3.10;;;;;;;14.56;68.17;100737.19;5397301;32;35176;-67
2022/05/26 02:13:21;;;;;;;5.90;3.50;;;;;;;14.83;66.22;100740.22;5385110;32;44583;-67
2022/05/26 02:16:37;;;;;;;5.57;3.20;;;;;;;14.91;65.63;100735.37;5396899;32;35423;-67
2022/05/26 02:20:01;;;;;;;5.40;3.03;;;;;;;15.60;62.95;100734.41;5398754;32;34671;-68
2022/05/26 02:23:20;;;;;;;6.87;3.50;;;;;;;15.47;62.33;100744.78;5382905;32;37187;-68
2022/05/26 02:26:22;;;;;;;7.20;3.80;;;;;;;15.06;64.83;100744.31;5392674;32;44374;-67
2022/05/26 02:32:50;;;;;;;7.00;3.53;;;;;;;15.35;64.00;100746.31;5395437;32;45029;-68
2022/05/26 02:35:52;;;;;;;6.53;3.60;;;;;;;15.35;64.07;100751.59;5400870;32;35333;-67
2022/05/26 02:38:55;;;;;;;7.60;3.35;;;;;;;14.92;65.77;100747.69;5385139;32;34087;-66
2022/05/26 02:41:57;;;;;;;12.33;4.00;;;;;;;14.40;67.72;100754.69;5415838;32;35190;-68
2022/05/26 02:44:59;;;;;;;6.12;3.08;;;;;;;14.65;66.90;100760.53;5394894;32;34100;-67
2022/05/26 02:48:20;;;;;;;7.33;3.60;;;;;;;14.59;66.14;100764.31;5412152;32;34125;-67
2022/05/26 02:51:33;;;;;;;8.27;2.80;;;;;;;14.71;65.54;100769.94;5398924;32;44299;-68
2022/05/26 02:55:13;;;;;;;5.40;3.03;;;;;;;14.49;66.28;100772.78;5395061;32;34067;-68
2022/05/26 02:58:36;;;;;;;11.23;3.43;;;;;;;14.84;64.76;100771.03;5406130;32;33891;-68
2022/05/26 03:01:47;;;;;;;4.32;2.95;;;;;;;15.35;62.59;100772.78;5400307;32;35350;-68
2022/05/26 03:04:55;;;;;;;5.80;2.87;;;;;;;14.84;63.89;100771.91;5393180;32;44481;-67
2022/05/26 03:08:00;;;;;;;5.00;2.63;;;;;;;14.93;63.52;100772.34;5401600;32;34123;-68
2022/05/26 03:11:18;;;;;;;6.87;2.77;;;;;;;15.00;62.97;100776.41;5400416;32;34575;-68
2022/05/26 03:14:21;;;;;;;4.43;2.63;;;;;;;15.02;62.19;100767.47;5413339;32;44501;-69
2022/05/26 03:17:23;;;;;;;5.93;2.50;;;;;;;15.01;62.00;100771.03;5378063;32;34123;-67
2022/05/26 03:20:25;;;;;;;6.93;2.50;;;;;;;15.15;61.22;100776.47;5395442;32;35237;-68
2022/05/26 03:23:28;;;;;;;4.00;2.37;;;;;;;15.25;60.53;100784.78;5391059;32;35245;-67
2022/05/26 03:26:30;;;;;;;7.03;2.80;;;;;;;15.58;59.36;100790.09;5402388;32;34083;-68
2022/05/26 03:29:33;;;;;;;6.57;2.50;;;;;;;14.80;62.02;100790.63;5406043;32;34132;-67
2022/05/26 03:32:35;;;;;;;6.28;2.87;;;;;;;15.46;59.92;100790.78;5394709;32;35328;-67
2022/05/26 03:42:19;;;;;;;3.77;2.57;;;;;;;15.72;59.13;100805.31;5405223;32;44341;-67
2022/05/26 03:45:23;;;;;;;7.28;2.70;;;;;;;15.56;59.87;100813.16;5409139;32;33804;-68
2022/05/26 03:48:25;;;;;;;4.23;2.50;;;;;;;15.97;59.11;100818.94;5380977;32;35392;-67
2022/05/26 03:51:28;;;;;;;3.93;2.60;;;;;;;16.22;57.86;100826.38;5399986;32;34190;-67
2022/05/26 03:54:30;;;;;;;7.80;3.70;;;;;;;16.43;57.20;100827.00;5391992;32;35594;-69
2022/05/26 03:57:32;;;;;;;6.40;2.90;;;;;;;16.64;56.75;100830.22;5400237;32;38080;-68
2022/05/26 04:00:35;;;;;;;4.57;2.80;;;;;;;17.26;54.71;100825.72;5400026;32;35172;-67
2022/05/26 04:03:37;;;;;;;4.43;2.70;;;;;;;17.12;54.83;100830.97;5385899;32;34153;-68
2022/05/26 04:06:40;;;;;;;6.93;2.67;;;;;;;16.88;54.95;100816.53;5393181;32;34216;-68
2022/05/26 04:09:42;;;;;;;4.78;2.28;;;;;;;16.86;55.82;100821.03;5377160;32;34299;-68
2022/05/26 04:12:45;;;;;;;5.50;2.62;;;;;;;17.51;52.73;100821.56;5414245;32;44478;-68
2022/05/26 04:15:47;;;;;;;5.87;2.63;;;;;;;17.62;52.83;100819.09;5400386;32;34715;-68
2022/05/26 04:18:51;;;;;;;4.37;2.50;;;;;;;17.40;52.43;100827.56;5412690;32;33995;-68
2022/05/26 04:25:15;;;;;;;4.87;2.33;;;;;;;17.19;53.11;100829.66;5397001;32;43235;-69
2022/05/26 04:28:17;;;;;;;5.82;2.20;;;;;;;18.76;49.18;100824.28;5407906;32;34088;-68
2022/05/26 04:31:19;;;;;;;7.50;3.40;;;;;;;19.10;47.73;100830.88;5380134;32;34092;-68
2022/05/26 04:34:21;;;;;;;4.90;2.37;;;;;;;19.41;47.24;100824.28;5415466;32;34017;-68
2022/05/26 04:37:25;;;;;;;5.37;2.30;;;;;;;20.09;45.82;100832.91;5397845;32;33471;-68
2022/05/26 04:40:27;;;;;;;3.37;2.30;;;;;;;20.16;45.07;100836.87;5409393;32;34091;-69
2022/05/26 04:43:31;;;;;;;7.50;2.50;;;;;;;21.14;42.68;100830.47;5402786;32;36032;-69
2022/05/26 04:46:33;;;;;;;3.53;2.40;;;;;;;21.29;42.42;100840.00;5402573;32;34123;-69
2022/05/26 04:49:37;;;;;;;6.62;2.72;;;;;;;21.05;43.03;100839.16;5401499;32;34850;-69
2022/05/26 04:52:40;;;;;;;4.28;2.15;;;;;;;21.53;41.74;100831.91;5396988;32;34194;-69
2022/05/26 04:55:42;;;;;;;;;;;;;;;22.44;39.20;100841.66;5399129;32;34067;-69
2022/05/26 04:58:44;;;;;;;3.60;1.85;;;;;;;22.87;38.97;100852.38;5395316;32;43320;-68
2022/05/26 05:01:50;;;;;;;4.18;1.67;;;;;;;21.12;42.38;100850.25;5406446;32;33234;-69
2022/05/26 05:04:53;;;;;;;6.57;1.70;;;;;;;22.05;39.87;100859.06;5405540;32;34080;-69
2022/05/26 05:07:55;;;;;;;4.12;1.90;;;;;;;21.54;40.94;100856.84;5396358;32;34265;-69
2022/05/26 05:10:57;;;;;;;6.03;1.80;;;;;;;23.06;38.38;100856.22;5418190;32;35568;-69
2022/05/26 05:14:02;;;;;;;6.68;1.70;;;;;;;22.24;39.44;100867.34;5396163;32;33058;-69
2022/05/26 05:17:04;;;;;;;7.32;1.70;;;;;;;22.97;38.06;100857.81;5416296;32;34854;-68
2022/05/26 05:20:07;;;;;;;5.57;1.75;;;;;;;23.56;37.06;100869.81;5399410;32;34332;-67
2022/05/26 05:23:12;;;;;;;3.15;1.60;;;;;;;23.67;37.04;100872.47;5403346;32;35556;-69
2022/05/26 05:26:16;;;;;;;6.62;2.15;;;;;;;21.49;41.66;100878.59;5412936;32;46446;-68
2022/05/26 05:29:22;;;;;;;4.75;1.50;;;;;;;22.98;39.06;100878.28;5397204;32;34153;-68
2022/05/26 05:32:29;;;;;;;2.03;1.50;;;;;;;22.11;40.10;100885.38;5416086;32;34061;-68
2022/05/26 05:35:53;;;;;;;5.93;1.70;;;;;;;21.98;41.11;100882.78;5379650;32;35253;-70
2022/05/26 05:38:57;;;;;;;5.95;2.05;;;;;;;22.79;39.10;100899.50;5401412;32;34254;-63
2022/05/26 05:41:59;;;;;;;5.75;2.22;;;;;;;22.13;40.93;100897.66;5392728;32;35833;-71
2022/05/26 05:45:02;;;;;;;4.90;2.00;;;;;;;23.36;38.68;100895.66;5400093;32;35613;-64
2022/05/26 05:48:04;;;;;;;;;;;;;;;23.61;38.03;100905.16;5410719;32;34759;-67
2022/05/26 05:51:06;;;;;;;4.37;2.00;;;;;;;22.69;39.88;100908.31;5392292;32;34656;-67
2022/05/26 05:54:08;;;;;;;2.65;1.50;;;;;;;22.22;41.13;100905.91;5411900;32;33991;-67
2022/05/26 05:57:10;;;;;;;6.40;2.08;;;;;;;23.44;38.59;100909.25;5375851;32;34179;-68
2022/05/26 06:00:13;;;;;;;3.75;1.80;;;;;;;22.85;39.72;100912.41;5402568;32;33781;-67
2022/05/26 06:03:15;;;;;;;11.45;3.00;;;;;;;24.29;36.94;100912.63;5393846;32;44349;-68
2022/05/26 06:06:17;;;;;;;7.22;3.47;;;;;;;23.85;37.59;100913.81;5394865;32;34592;-67
2022/05/26 06:09:20;;;;;;;5.22;1.60;;;;;;;25.00;35.13;100909.84;5409848;32;34079;-67
2022/05/26 06:12:22;;;;;;;4.28;1.90;;;;;;;22.91;38.17;100915.47;5392659;32;33988;-66
2022/05/26 06:15:25;;;;;;;3.33;2.03;;;;;;;23.75;37.24;100913.75;5400405;32;34206;-67
2022/05/26 06:18:27;;;;;;;4.45;1.90;;;;;;;23.90;37.07;100914.28;5397918;32;35435;-67
2022/05/26 06:21:29;;;;;;;5.97;1.90;;;;;;;24.47;35.91;100914.66;5401940;32;35354;-66
2022/05/26 06:24:31;;;;;;;3.78;1.65;;;;;;;24.24;35.75;100914.00;5397485;32;35235;-67
2022/05/26 06:30:54;;;;;;;5.62;1.50;;;;;;;24.51;35.97;100916.94;5408890;32;37294;-64
2022/05/26 06:37:17;;;;;;;3.45;1.58;;;;;;;24.16;35.81;100933.47;5407462;32;45175;-68
2022/05/26 06:40:20;;;;;;;5.55;1.95;;;;;;;24.58;35.32;100934.22;5400208;32;35841;-69
2022/05/26 06:43:22;;;;;;;1.40;1.25;;;;;;;25.36;34.48;100947.81;5374552;32;34155;-71
2022/05/26 06:46:24;;;;;;;;;;;;;;;25.76;33.42;100952.19;5408558;32;35267;-70
2022/05/26 06:49:27;;;;;;;4.12;1.62;;;;;;;25.11;34.71;100957.28;5366605;32;35518;-67
2022/05/26 06:52:29;;;;;;;3.35;1.40;;;;;;;25.00;35.58;100954.69;5367994;32;34003;-66
2022/05/26 06:55:34;;;;;;;3.15;1.70;;;;;;;24.05;36.93;100950.53;5359174;32;34168;-65
2022/05/26 06:58:37;;;;;;;11.52;2.15;;;;;;;25.46;34.17;100947.81;5372842;32;33870;-69
2022/05/26 07:01:39;;;;;;;5.37;1.50;;;;;;;26.31;32.79;100937.00;5411491;32;33839;-68
2022/05/26 07:04:42;;;;;;;5.00;1.60;;;;;;;26.27;33.29;100940.12;5398526;32;34121;-66
2022/05/26 07:07:45;;;;;;;3.37;1.67;;;;;;;28.16;29.35;100940.00;5392859;32;45401;-69
2022/05/26 07:10:50;;;;;;;6.03;1.70;;;;;;;27.16;31.19;100937.69;5384795;32;34128;-66
2022/05/26 07:13:52;;;;;;;2.97;1.55;;;;;;;26.94;31.67;100933.56;5403609;32;35251;-65
2022/05/26 07:16:55;;;;;;;6.40;1.60;;;;;;;27.02;31.44;100932.78;5401455;32;34276;-69
2022/05/26 07:19:57;;;;;;;4.55;1.83;;;;;;;26.59;31.42;100943.28;5399493;32;33875;-68
2022/05/26 07:22:59;;;;;;;2.75;1.30;;;;;;;26.72;31.83;100935.66;5412627;32;35185;-66
2022/05/26 07:26:09;;;;;;;4.15;1.30;;;;;;;27.21;30.68;100938.06;5386431;32;249081;-66
2022/05/26 07:29:12;;;;;;;5.15;1.33;;;;;;;28.28;28.83;100945.97;5408651;32;33970;-65
2022/05/26 07:32:15;;;;;;;4.00;1.40;;;;;;;27.93;29.30;100941.53;5396320;32;44745;-66
2022/05/26 07:35:17;;;;;;;6.07;1.75;;;;;;;27.41;30.18;100947.69;5409097;32;37109;-67
2022/05/26 07:41:42;;;;;;;4.80;1.58;;;;;;;29.29;27.26;100959.50;5396543;32;34936;-69
2022/05/26 07:44:48;;;;;;;2.25;1.40;;;;;;;28.35;28.36;100957.03;5412587;32;36133;-68
2022/05/26 07:47:50;;;;;;;7.22;1.48;;;;;;;27.40;29.64;100959.50;5398737;32;35466;-67
2022/05/26 07:50:52;;;;;;;2.58;1.52;;;;;;;27.43;30.53;100966.44;5405650;32;34250;-70
2022/05/26 07:53:55;;;;;;;4.18;1.50;;;;;;;28.31;28.98;100964.59;5398121;32;34246;-66
2022/05/26 07:56:57;;;;;;;4.45;1.60;;;;;;;25.49;33.91;100972.59;5366964;32;34297;-63
2022/05/26 08:00:00;;;;;;;7.95;1.60;;;;;;;28.09;30.22;100967.81;5411452;32;34179;-65
2022/05/26 08:03:03;;;;;;;4.60;1.87;;;;;;;28.12;29.71;100965.63;5388716;32;35169;-65
2022/05/26 08:06:06;;;;;;;7.75;1.50;;;;;;;27.89;30.47;100968.03;5395235;32;36113;-65
2022/05/26 08:09:08;;;;;;;4.60;1.50;;;;;;;29.02;28.65;100975.03;5382904;32;35246;-70
2022/05/26 08:12:12;;;;;;;1.80;1.37;;;;;;;30.41;26.87;100966.88;5397508;32;32809;-70
2022/05/26 08:15:15;;;;;;;4.55;1.40;;;;;;;30.55;25.56;100968.87;5385622;32;44700;-71
2022/05/26 08:18:17;;;;;;;2.45;1.23;;;;;;;30.49;25.71;100964.12;5394526;32;34083;-69
2022/05/26 08:21:19;;;;;;;7.68;1.73;;;;;;;29.94;26.20;100976.59;5410511;32;34030;-65
2022/05/26 08:24:24;;;;;;;7.15;2.20;;;;;;;27.62;29.64;100976.22;5399931;32;34407;-65
2022/05/26 08:27:26;;;;;;;3.05;1.30;;;;;;;30.28;26.02;100953.88;5408503;32;34221;-65
2022/05/26 08:30:28;;;;;;;7.22;1.50;;;;;;;31.18;24.70;100957.00;5399183;32;34562;-65
2022/05/26 08:33:31;;;;;;;2.97;1.20;;;;;;;29.60;26.76;100973.25;5407517;32;33993;-71
2022/05/26 08:36:34;;;;;;;5.60;1.50;;;;;;;28.09;29.09;100965.13;5402332;32;35594;-70
2022/05/26 08:39:36;;;;;;;3.08;1.48;;;;;;;28.34;29.18;100969.69;5400477;32;34204;-71
2022/05/26 08:42:39;;;;;;;4.60;1.60;;;;;;;27.89;29.61;100959.94;5412185;32;34069;-69
2022/05/26 08:45:45;;;;;;;7.70;1.62;;;;;;;28.56;28.76;100962.84;5402475;32;34087;-64
2022/05/26 08:49:10;;;;;;;4.85;1.40;;;;;;;29.16;27.76;100961.84;5396840;32;44420;-65
2022/05/26 08:52:15;;;;;;;6.53;1.75;;;;;;;30.38;26.26;100968.06;5383030;32;36635;-64
2022/05/26 08:55:22;;;;;;;6.57;1.90;;;;;;;30.82;24.87;100959.44;5374581;32;44502;-66
2022/05/26 08:58:34;;;;;;;2.55;1.55;;;;;;;30.18;25.54;100956.78;5406582;32;35388;-67
2022/05/26 09:01:36;;;;;;;4.20;1.45;;;;;;;28.94;27.31;100964.19;5383819;32;35415;-67
2022/05/26 09:04:39;;;;;;;2.60;1.20;;;;;;;30.91;24.49;100958.34;5416346;32;34196;-65
2022/05/26 09:14:44;;;;;;;7.47;2.90;;;;;;;30.09;24.80;100959.66;5409396;32;44548;-63
2022/05/26 09:17:46;;;;;;;5.62;1.92;;;;;;;30.61;23.74;100968.16;5387227;32;34182;-67
2022/05/26 09:20:50;;;;;;;4.53;1.58;;;;;;;30.10;24.39;100964.09;5416893;32;35438;-65
2022/05/26 09:23:54;;;;;;;3.53;1.10;;;;;;;29.53;24.78;100962.25;5401953;32;35403;-64
2022/05/26 09:26:59;;;;;;;5.75;1.50;;;;;;;30.37;23.99;100968.25;5386513;32;34365;-62
2022/05/26 09:30:34;;;;;;;4.10;1.10;;;;;;;30.71;23.26;100965.25;5402675;32;34191;-66
2022/05/26 09:33:37;;;;;;;3.12;1.10;;;;;;;33.10;20.55;100957.22;5373075;32;34425;-64
2022/05/26 09:36:43;;;;;;;4.87;1.20;;;;;;;31.18;21.41;100953.44;5387572;32;34315;-63
2022/05/26 09:39:45;;;;;;;1.83;1.02;;;;;;;31.89;18.63;100965.81;5403862;32;44577;-64
2022/05/26 09:43:05;;;;;;;4.55;1.23;;;;;;;32.78;17.44;100963.94;5408073;32;35303;-63
2022/05/26 09:46:11;;;;;;;4.93;1.12;;;;;;;32.87;18.19;100951.94;5410902;32;35743;-63
2022/05/26 09:49:13;;;;;;;6.00;1.27;;;;;;;31.60;18.77;100946.69;5403229;32;35557;-64
2022/05/26 09:52:23;;;;;;;1.98;1.20;;;;;;;31.68;18.70;100957.47;5411453;32;44378;-65
2022/05/26 09:55:29;;;;;;;4.15;1.05;;;;;;;31.56;19.28;100948.94;5383398;32;34089;-63
2022/05/26 09:58:37;;;;;;;3.70;1.23;;;;;;;31.96;18.83;100957.75;5393048;32;35737;-65
2022/05/26 10:01:43;;;;;;;3.55;1.23;;;;;;;33.73;16.27;100945.63;5407316;32;35602;-64
2022/05/26 10:04:49;;;;;;;5.00;1.10;;;;;;;33.40;17.60;100938.87;5385532;32;44336;-65
2022/05/26 10:08:07;;;;;;;4.12;1.12;;;;;;;31.87;18.95;100953.41;5398778;32;33806;-65
2022/05/26 10:12:01;;;;;;;2.15;0.90;;;;;;;31.26;19.20;100950.69;5396065;32;33273;-63
2022/05/26 10:15:15;;;;;;;3.90;1.60;;;;;;;29.14;22.94;100949.34;5377275;32;34162;-65
2022/05/26 10:18:45;;;;;;;3.03;1.33;;;;;;;31.04;21.36;100955.03;5414498;32;46693;-66
2022/05/26 10:22:00;;;;;;;3.33;1.00;;;;;;;30.41;21.57;100946.03;5382312;32;45786;-71
2022/05/26 10:25:02;;;;;;;3.10;1.20;;;;;;;32.17;19.84;100955.13;5405472;32;35875;-71
2022/05/26 10:28:18;;;;;;;1.70;1.17;;;;;;;33.70;17.85;100955.06;5406422;32;34124;-79
2022/05/26 10:31:42;;;;;;;2.83;1.10;;;;;;;29.65;22.37;100951.94;5400564;32;44550;-69
2022/05/26 10:34:53;;;;;;;4.32;1.33;;;;;;;31.86;20.56;100962.59;5415724;32;46483;-68
2022/05/26 10:38:08;;;;;;;1.45;1.05;;;;;;;32.17;20.46;100944.25;5386489;32;35673;-76
2022/05/26 10:41:14;;;;;;;5.43;1.60;;;;;;;31.87;20.46;100948.81;5403842;32;34176;-66
2022/05/26 10:44:34;;;;;;;3.45;1.42;;;;;;;29.57;22.75;100952.78;5407847;32;43478;-65
2022/05/26 10:47:59;;;;;;;2.65;1.40;;;;;;;29.86;22.52;100948.69;5385200;32;34249;-70
2022/05/26 10:51:33;;;;;;;5.43;1.10;;;;;;;31.98;19.84;100939.38;5415706;32;34036;-73
2022/05/26 10:54:39;;;;;;;2.22;1.10;;;;;;;31.04;20.85;100937.91;5385387;32;35977;-66
2022/05/26 10:58:00;;;;;;;3.72;1.30;;;;;;;31.09;20.48;100947.22;5386433;32;35671;-65
2022/05/26 11:01:08;;;;;;;2.17;1.08;;;;;;;32.78;19.13;100947.62;5399921;32;35558;-67
2022/05/26 11:04:33;;;;;;;6.10;1.30;;;;;;;31.98;20.30;100947.53;5400548;32;34228;-66
2022/05/26 11:07:42;;;;;;;2.17;1.00;;;;;;;32.29;19.99;100937.31;5400231;32;34249;-66
2022/05/26 11:10:46;;;;;;;6.65;1.55;;;;;;;32.76;19.79;100938.78;5413033;32;44528;-68
2022/05/26 11:13:54;;;;;;;4.87;1.30;;;;;;;33.62;18.67;100939.69;5390317;32;34161;-69
2022/05/26 11:20:53;;;;;;;2.75;1.40;;;;;;;33.23;18.64;100937.41;5399770;32;46731;-69
2022/05/26 11:23:55;;;;;;;4.12;0.90;;;;;;;30.73;21.62;100933.38;5387199;32;35245;-71
2022/05/26 11:27:19;;;;;;;2.45;1.00;;;;;;;31.79;20.73;100941.59;5412668;32;34165;-65
2022/05/26 11:37:40;;;;;;;3.25;1.30;;;;;;;31.75;20.74;100910.38;5399718;32;35359;-68
2022/05/26 11:40:48;;;;;;;2.65;1.17;;;;;;;32.99;19.54;100916.03;5387413;32;35545;-65
2022/05/26 11:44:08;;;;;;;2.90;1.20;;;;;;;32.30;19.84;100919.97;5413397;32;44514;-65
2022/05/26 11:47:33;;;;;;;2.47;1.48;;;;;;;32.79;19.88;100924.78;5400149;32;35183;-70
2022/05/26 11:50:57;;;;;;;2.85;1.20;;;;;;;32.18;20.09;100917.91;5402483;32;34068;-69
2022/05/26 11:53:59;;;;;;;4.55;2.62;;;;;;;32.96;19.95;100917.25;5402089;32;34004;-70
2022/05/26 11:57:30;;;;;;;7.97;1.40;;;;;;;33.10;19.47;100929.13;5363322;32;33984;-69
2022/05/26 12:00:40;;;;;;;2.50;1.60;;;;;;;31.49;21.87;100918.06;5409183;32;34036;-66
2022/05/26 12:03:54;;;;;;;7.30;2.00;;;;;;;33.26;19.83;100917.97;5400708;32;38489;-67
2022/05/26 12:06:56;;;;;;;2.15;1.10;;;;;;;33.92;18.74;100909.53;5400363;32;35671;-66
2022/05/26 12:09:59;;;;;;;4.12;1.10;;;;;;;33.18;19.12;100904.50;5418339;32;34244;-74
2022/05/26 12:13:23;;;;;;;2.12;1.35;;;;;;;31.42;21.00;100887.25;5403436;32;35430;-64
2022/05/26 12:16:27;;;;;;;3.62;1.40;;;;;;;29.90;23.11;100899.41;5404412;32;34228;-72
2022/05/26 12:19:50;;;;;;;7.20;1.10;;;;;;;29.87;23.34;100885.34;5412094;32;34643;-70
2022/05/26 12:22:52;;;;;;;2.47;1.10;;;;;;;29.56;24.12;100888.81;5402052;32;44961;-73
2022/05/26 12:26:28;;;;;;;3.78;1.17;;;;;;;29.60;23.97;100875.75;5416720;32;34234;-73
2022/05/26 12:29:49;;;;;;;3.30;1.27;;;;;;;28.43;24.94;100875.94;5388490;32;36864;-71
2022/05/26 12:32:52;;;;;;;3.70;1.17;;;;;;;27.06;26.71;100880.28;5395801;32;47524;-71
2022/05/26 12:36:26;;;;;;;8.68;1.40;;;;;;;27.29;26.45;100876.06;5415333;32;34214;-74
2022/05/26 12:40:00;;;;;;;8.80;1.20;;;;;;;28.31;24.73;100872.69;5397707;32;35628;-75
2022/05/26 12:43:27;;;;;;;3.20;1.15;;;;;;;27.79;25.71;100861.94;5388557;32;35763;-71
2022/05/26 12:47:07;;;;;;;3.55;1.20;;;;;;;27.40;26.03;100864.19;5414400;32;35919;-70
2022/05/26 12:50:22;;;;;;;6.25;1.25;;;;;;;28.44;24.16;100864.97;5397770;32;34330;-68
2022/05/26 12:53:30;;;;;;;5.03;1.60;;;;;;;27.48;25.70;100883.12;5408099;32;34133;-70
2022/05/26 12:56:50;;;;;;;3.85;1.40;;;;;;;27.45;25.04;100869.97;5386926;32;35819;-68
2022/05/26 13:00:33;;;;;;;4.03;1.40;;;;;;;26.89;26.00;100871.97;5404277;32;44773;-68
2022/05/26 13:03:43;;;;;;;2.12;1.10;;;;;;;26.73;26.74;100870.00;5415814;32;33827;-69
2022/05/26 13:06:49;;;;;;;9.82;1.75;;;;;;;26.18;28.15;100872.69;5403487;32;44432;-67
2022/05/26 13:09:52;;;;;;;3.62;1.33;;;;;;;27.48;26.51;100865.09;5407835;32;35191;-69
2022/05/26 13:12:55;;;;;;;2.65;1.35;;;;;;;28.26;25.43;100859.63;5418545;32;34058;-70
2022/05/26 13:16:23;;;;;;;1.87;1.02;;;;;;;27.87;26.11;100859.28;5403140;32;33993;-70
2022/05/26 13:19:26;;;;;;;5.37;1.55;;;;;;;28.07;25.49;100851.78;5413664;32;35231;-66
2022/05/26 13:22:34;;;;;;;7.43;1.40;;;;;;;27.21;27.15;100857.13;5404083;32;34351;-67
2022/05/26 13:25:36;;;;;;;1.75;1.10;;;;;;;27.99;26.16;100857.16;5399950;32;33000;-66
2022/05/26 13:28:40;;;;;;;1.87;1.10;;;;;;;27.45;26.66;100854.63;5397370;32;35440;-66
2022/05/26 13:35:20;;;;;;;4.15;1.27;;;;;;;27.14;26.06;100850.66;5390278;32;46099;-67
2022/05/26 13:38:22;;;;;;;3.25;1.52;;;;;;;27.15;26.33;100844.25;5404702;32;35306;-72
2022/05/26 13:41:26;;;;;;;3.30;1.10;;;;;;;28.11;24.62;100839.66;5401767;32;34208;-71
2022/05/26 13:44:37;;;;;;;1.95;1.42;;;;;;;28.95;23.45;100848.69;5415439;32;33988;-72
2022/05/26 13:47:39;;;;;;;3.30;1.35;;;;;;;27.11;25.56;100845.56;5380788;32;35735;-70
2022/05/26 13:50:45;;;;;;;;;;;;;;;28.39;23.97;100842.97;5415125;32;34053;-66
2022/05/26 13:54:10;;;;;;;4.55;1.25;;;;;;;27.90;23.66;100848.19;5382504;32;45342;-67
2022/05/26 13:57:17;;;;;;;7.20;1.20;;;;;;;27.94;24.33;100843.28;5380040;32;34879;-67
2022/05/26 14:00:29;;;;;;;4.18;1.42;;;;;;;27.87;24.79;100840.37;5412333;32;45905;-66
2022/05/26 14:03:34;;;;;;;3.05;1.40;;;;;;;27.79;25.14;100835.78;5379095;32;34189;-71
2022/05/26 14:06:37;;;;;;;3.22;1.00;;;;;;;27.96;24.93;100830.47;5407356;32;36878;-67
2022/05/26 14:09:40;;;;;;;6.20;1.17;;;;;;;28.39;23.95;100829.47;5398001;32;35464;-71
2022/05/26 14:12:42;;;;;;;;;;;;;;;28.28;24.55;100813.53;5404644;32;35296;-65
2022/05/26 14:15:50;;;;;;;4.55;1.30;;;;;;;27.92;25.04;100818.28;5386218;32;43395;-70
2022/05/26 14:18:57;;;;;;;2.97;1.12;;;;;;;28.32;24.47;100810.34;5396759;32;34252;-71
2022/05/26 14:22:00;;;;;;;3.47;1.00;;;;;;;28.43;24.37;100816.47;5394984;32;33950;-67
2022/05/26 14:25:03;;;;;;;1.87;1.00;;;;;;;26.89;26.54;100801.03;5395179;32;34662;-67
2022/05/26 14:28:05;;;;;;;2.12;1.08;;;;;;;27.02;26.28;100800.63;5394763;32;34522;-67
2022/05/26 14:31:17;;;;;;;;;;;;;;;28.05;25.34;100814.13;5392602;32;35427;-67
2022/05/26 14:34:24;;;;;;;3.90;2.30;;;;;;;27.57;25.98;100803.06;5401707;32;44930;-66
2022/05/26 14:37:28;;;;;;;3.33;1.00;;;;;;;27.22;27.01;100810.25;5414019;32;34352;-72
2022/05/26 14:40:31;;;;;;;2.40;1.12;;;;;;;26.60;27.96;100806.63;5400508;32;35054;-68
2022/05/26 14:43:34;;;;;;;5.00;1.70;;;;;;;27.26;26.86;100811.62;5417144;32;35719;-68
2022/05/26 14:46:36;;;;;;;4.03;1.20;;;;;;;27.62;26.64;100801.56;5394364;32;34300;-73
2022/05/26 14:49:41;;;;;;;4.37;1.30;;;;;;;27.37;27.35;100797.91;5415824;32;34173;-71
2022/05/26 14:52:48;;;;;;;2.58;1.20;;;;;;;27.52;27.37;100798.97;5401996;32;34230;-72
2022/05/26 14:55:50;;;;;;;3.72;1.10;;;;;;;27.28;27.80;100798.81;5360237;32;44832;-67
2022/05/26 14:58:52;;;;;;;2.50;1.10;;;;;;;27.55;27.69;100792.41;5392446;32;34086;-72
2022/05/26 15:01:55;;;;;;;5.10;1.27;;;;;;;27.26;28.03;100788.19;5396312;32;34143;-65
2022/05/26 15:04:57;;;;;;;2.03;1.10;;;;;;;28.21;26.81;100786.34;5410800;32;34995;-67
2022/05/26 15:08:00;;;;;;;6.35;1.50;;;;;;;27.23;27.69;100793.91;5403075;32;35103;-71
2022/05/26 15:11:02;;;;;;;5.57;1.20;;;;;;;26.40;28.88;100781.69;5409260;32;34605;-66
2022/05/26 15:14:04;;;;;;;1.92;1.20;;;;;;;26.37;29.14;100774.72;5402313;32;35220;-67
2022/05/26 15:17:10;;;;;;;2.95;1.23;;;;;;;26.94;28.33;100774.44;5399122;32;34577;-66
2022/05/26 15:20:16;;;;;;;4.75;1.20;;;;;;;26.97;28.75;100766.88;5393453;32;34017;-66